Terminal Aerodrome Forecast
Issued by NWS

Home | Current Version | Previous Version | Text Only | Print | Product List | Glossary On
Versions: 1 2 3 4 5 6 7 8 9 10 11 12 13 14 15 16 17 18 19 20 21
000
FTUS46 KSEW 260300 AAB
TAFBLI
TAF AMD
KBLI 260316Z 2603/2624 02008KT 2SM -RA BR SCT004 OVC012
      TEMPO 2603/2607 BKN004 OVC012
     FM260700 15008G18KT 4SM -RA BR OVC012
     FM261300 17008KT 4SM -RA BR OVC010
     FM262000 17012KT 4SM -RA BR OVC015=

USA.gov is the U.S. government's official web portal to all federal, state and local government web resources and services.